Time;durP1;ratioP1;P1;durP2;ratioP2;P2;SDS_P1;SDS_P2;PMS_P1;PMS_P2;Temp;Humidity;BMP_temperature;BMP_pressure;BME280_temperature;BME280_humidity;BME280_pressure;Samples;Min_cycle;Max_cycle;Signal;HPM_P1;HPM_P2
2023/02/25 00:01:16;;;;;;;36.88;16.98;;;;;;;6.09;75.96;93327.66;5104358;28;20360;-85
2023/02/25 00:03:41;;;;;;;38.95;18.52;;;;;;;6.10;76.12;93329.22;5104477;28;20024;-85
2023/02/25 00:06:12;;;;;;;44.65;18.77;;;;;;;6.10;76.64;93324.69;5104615;28;20024;-86
2023/02/25 00:08:38;;;;;;;42.80;20.05;;;;;;;6.12;76.59;93327.03;5103996;28;20095;-85
2023/02/25 00:11:05;;;;;;;39.30;19.17;;;;;;;6.18;76.36;93321.34;5104439;28;20016;-85
2023/02/25 00:13:32;;;;;;;40.83;18.90;;;;;;;6.25;75.80;93331.53;5104213;28;20020;-85
2023/02/25 00:15:58;;;;;;;39.55;19.80;;;;;;;6.29;75.70;93326.41;5104321;28;20268;-86
2023/02/25 00:18:25;;;;;;;41.85;18.95;;;;;;;6.26;74.95;93333.09;5103848;28;20024;-84
2023/02/25 00:20:50;;;;;;;36.95;18.10;;;;;;;6.26;75.26;93322.50;5103666;28;20073;-85
2023/02/25 00:23:15;;;;;;;35.92;16.65;;;;;;;6.30;74.83;93312.88;5104054;28;20028;-86
2023/02/25 00:25:41;;;;;;;35.75;15.68;;;;;;;6.35;74.61;93317.28;5104076;28;20024;-86
2023/02/25 00:28:06;;;;;;;35.47;16.35;;;;;;;6.29;74.62;93316.63;5102836;28;20035;-85
2023/02/25 00:30:33;;;;;;;29.90;15.30;;;;;;;6.34;74.80;93305.91;5102829;28;20371;-85
2023/02/25 00:32:58;;;;;;;37.63;16.33;;;;;;;6.33;74.66;93311.50;5104012;28;20019;-85
2023/02/25 00:35:24;;;;;;;32.75;14.95;;;;;;;6.34;74.59;93321.78;5103886;28;20210;-85
2023/02/25 00:37:53;;;;;;;35.92;14.90;;;;;;;6.35;74.56;93299.53;5103665;28;20031;-85
2023/02/25 00:40:18;;;;;;;36.28;15.35;;;;;;;6.38;74.57;93306.88;5103829;28;20016;-85
2023/02/25 00:42:44;;;;;;;26.33;14.27;;;;;;;6.41;74.66;93297.53;5103457;28;20085;-85
2023/02/25 00:45:10;;;;;;;30.05;14.73;;;;;;;6.35;74.48;93304.03;5103349;28;20028;-85
2023/02/25 00:47:36;;;;;;;33.25;14.32;;;;;;;6.32;74.71;93278.19;5103569;28;20046;-85
2023/02/25 00:50:04;;;;;;;32.03;13.27;;;;;;;6.36;74.78;93295.81;5103773;28;20133;-85
2023/02/25 00:52:31;;;;;;;29.63;14.52;;;;;;;6.37;74.63;93278.03;5103577;28;20016;-85
2023/02/25 00:54:56;;;;;;;35.40;14.63;;;;;;;6.42;74.73;93278.72;5103497;28;20015;-86
2023/02/25 00:57:21;;;;;;;29.25;13.40;;;;;;;6.46;74.18;93281.56;5103441;28;20016;-84
2023/02/25 00:59:48;;;;;;;29.60;14.13;;;;;;;6.46;73.81;93286.84;5103537;28;20337;-84
2023/02/25 01:02:14;;;;;;;35.80;15.27;;;;;;;6.46;73.57;93260.38;5103250;28;20016;-84
2023/02/25 01:04:39;;;;;;;36.45;15.63;;;;;;;6.49;73.56;93277.50;5103433;28;20054;-84
2023/02/25 01:07:05;;;;;;;33.95;14.80;;;;;;;6.51;73.75;93264.75;5103378;28;20023;-84
2023/02/25 01:09:31;;;;;;;32.78;14.85;;;;;;;6.56;73.29;93259.34;5103178;28;20016;-84
2023/02/25 01:11:56;;;;;;;29.98;14.82;;;;;;;6.60;73.51;93253.16;5103321;28;20195;-84
2023/02/25 01:14:24;;;;;;;34.80;15.27;;;;;;;6.62;73.38;93253.63;5103185;28;20096;-84
2023/02/25 01:16:51;;;;;;;30.85;13.55;;;;;;;6.63;73.53;93241.97;5103218;28;20035;-84
2023/02/25 01:19:22;;;;;;;40.80;13.50;;;;;;;6.67;73.77;93239.47;5101890;28;20020;-84
2023/02/25 01:21:51;;;;;;;31.98;13.68;;;;;;;6.66;73.54;93255.69;5103057;28;20024;-85
2023/02/25 01:24:20;;;;;;;29.27;12.27;;;;;;;6.66;73.86;93250.38;5103143;28;20095;-85
2023/02/25 01:26:47;;;;;;;29.05;12.90;;;;;;;6.63;73.78;93254.41;5103027;28;20016;-85
2023/02/25 01:29:16;;;;;;;32.28;14.70;;;;;;;6.66;74.05;93243.22;5102979;28;20218;-85
2023/02/25 01:31:42;;;;;;;32.88;14.63;;;;;;;6.70;74.14;93240.75;5102930;28;20024;-85
2023/02/25 01:34:13;;;;;;;30.33;12.43;;;;;;;6.76;73.85;93245.59;5101782;28;20043;-85
2023/02/25 01:36:38;;;;;;;34.78;13.52;;;;;;;6.79;73.77;93249.50;5102840;28;20024;-84
2023/02/25 01:39:04;;;;;;;32.42;13.75;;;;;;;6.76;73.60;93255.44;5103102;28;20260;-85
2023/02/25 01:41:33;;;;;;;32.63;14.27;;;;;;;6.75;74.20;93228.13;5102865;28;20382;-85
2023/02/25 01:44:13;;;;;;;28.65;13.73;;;;;;;6.80;74.50;93245.78;5102950;28;20054;-85
2023/02/25 01:46:41;;;;;;;32.47;14.82;;;;;;;6.79;74.33;93262.75;5102570;28;20121;-85
2023/02/25 01:49:15;;;;;;;32.70;15.02;;;;;;;6.77;74.43;93231.25;5101704;28;20024;-85
2023/02/25 01:51:43;;;;;;;44.85;14.80;;;;;;;6.77;74.54;93241.84;5102880;28;20054;-85
2023/02/25 01:54:10;;;;;;;36.45;14.90;;;;;;;6.78;74.51;93253.25;5102763;28;20023;-85
2023/02/25 01:56:38;;;;;;;34.05;14.82;;;;;;;6.76;74.40;93250.13;5104139;28;20022;-85
2023/02/25 01:59:04;;;;;;;36.42;15.75;;;;;;;6.74;74.54;93233.75;5106926;28;20016;-85
2023/02/25 02:01:32;;;;;;;35.97;16.33;;;;;;;6.79;74.46;93239.69;5106794;28;20322;-85
2023/02/25 02:04:03;;;;;;;30.73;14.50;;;;;;;6.74;74.68;93250.44;5106853;28;20028;-85
2023/02/25 02:06:35;;;;;;;32.25;14.88;;;;;;;6.81;74.69;93236.75;5106732;28;20031;-86
2023/02/25 02:09:02;;;;;;;37.72;14.88;;;;;;;6.86;74.48;93228.69;5106905;28;20024;-85
2023/02/25 02:11:28;;;;;;;32.45;13.88;;;;;;;6.87;74.31;93230.22;5106953;28;20024;-84
2023/02/25 02:13:56;;;;;;;32.00;14.48;;;;;;;6.87;74.19;93230.22;5106830;28;20022;-84
2023/02/25 02:16:50;;;;;;;31.48;14.18;;;;;;;6.94;74.21;93219.19;5106870;28;20040;-86
2023/02/25 02:19:48;;;;;;;32.40;13.55;;;;;;;6.95;74.33;93215.47;5106511;28;20032;-85
2023/02/25 02:22:35;;;;;;;32.08;13.20;;;;;;;6.94;74.25;93220.00;5106347;28;20024;-85
2023/02/25 02:25:16;;;;;;;26.55;12.95;;;;;;;6.97;74.13;93211.41;5105121;28;20023;-86
2023/02/25 02:28:06;;;;;;;28.15;14.38;;;;;;;7.00;73.87;93213.47;5106588;28;20341;-85
2023/02/25 02:30:46;;;;;;;38.83;12.93;;;;;;;7.01;73.66;93206.28;5106420;28;20054;-85
2023/02/25 02:33:40;;;;;;;36.63;15.50;;;;;;;6.97;73.76;93200.03;5106302;28;20024;-85
2023/02/25 02:36:38;;;;;;;25.98;12.90;;;;;;;6.96;73.92;93206.41;5104810;28;20055;-85
2023/02/25 02:39:06;;;;;;;37.78;13.00;;;;;;;6.97;73.41;93190.22;5106295;28;20024;-85
2023/02/25 02:41:40;;;;;;;25.45;12.80;;;;;;;6.91;74.49;93193.31;5106069;28;20039;-85
2023/02/25 02:44:27;;;;;;;27.15;13.15;;;;;;;6.99;74.48;93209.25;5106179;28;20199;-85
2023/02/25 02:47:02;;;;;;;31.48;14.00;;;;;;;7.01;74.31;93201.75;5106078;28;20063;-85
2023/02/25 02:49:38;;;;;;;33.03;14.18;;;;;;;7.06;74.38;93195.53;5104941;28;20482;-85
2023/02/25 02:52:08;;;;;;;26.85;12.70;;;;;;;7.10;73.82;93161.25;5106104;28;20061;-85
2023/02/25 02:54:39;;;;;;;23.02;11.77;;;;;;;7.01;73.60;93191.16;5104829;28;20016;-85
2023/02/25 02:57:09;;;;;;;27.88;12.73;;;;;;;7.00;73.66;93191.47;5106126;28;20024;-85
2023/02/25 03:00:18;;;;;;;25.65;14.15;;;;;;;6.93;74.00;93183.19;5106013;28;20252;-86
2023/02/25 03:02:56;;;;;;;27.65;13.27;;;;;;;6.91;74.00;93178.19;5086006;28;20036;-85
2023/02/25 03:05:26;;;;;;;28.27;13.85;;;;;;;6.86;74.13;93170.41;5105594;28;20032;-85
2023/02/25 03:08:05;;;;;;;35.25;15.32;;;;;;;6.85;73.90;93168.81;5103959;28;20027;-86
2023/02/25 03:10:31;;;;;;;28.58;13.95;;;;;;;6.83;73.75;93182.38;5105887;28;20209;-85
2023/02/25 03:12:56;;;;;;;30.20;14.10;;;;;;;6.82;73.94;93185.34;5105456;28;20059;-85
2023/02/25 03:15:24;;;;;;;29.67;13.85;;;;;;;6.83;74.18;93189.53;5105423;28;20322;-85
2023/02/25 03:17:56;;;;;;;32.65;12.50;;;;;;;6.81;74.65;93181.88;5105426;28;20024;-86
2023/02/25 03:20:43;;;;;;;27.15;12.77;;;;;;;6.79;74.18;93180.66;5105436;28;20020;-86
2023/02/25 03:23:17;;;;;;;27.73;11.90;;;;;;;6.77;74.27;93185.47;5105407;28;20031;-85
2023/02/25 03:25:50;;;;;;;35.92;13.88;;;;;;;6.73;74.59;93176.56;5105312;28;20020;-85
2023/02/25 03:28:32;;;;;;;28.33;13.63;;;;;;;6.76;74.38;93183.91;5105254;28;20091;-85
2023/02/25 03:31:05;;;;;;;33.83;13.35;;;;;;;6.75;74.46;93183.13;5105124;28;20475;-85
2023/02/25 03:33:37;;;;;;;36.42;13.43;;;;;;;6.80;73.94;93187.53;5103987;28;20020;-85
2023/02/25 03:36:10;;;;;;;28.20;13.30;;;;;;;6.81;73.59;93189.84;5104157;28;20117;-85
2023/02/25 03:38:39;;;;;;;33.40;13.52;;;;;;;6.76;73.58;93175.97;5105246;28;20046;-85
2023/02/25 03:41:06;;;;;;;30.17;13.15;;;;;;;6.78;73.92;93171.16;5103779;28;20073;-85
2023/02/25 03:43:40;;;;;;;27.23;13.38;;;;;;;6.67;73.40;93175.91;5104967;28;20348;-85
2023/02/25 03:46:06;;;;;;;27.88;14.00;;;;;;;6.65;73.99;93162.19;5104925;28;20103;-85
2023/02/25 03:48:34;;;;;;;33.22;14.48;;;;;;;6.62;73.53;93165.47;5104745;28;20027;-86
2023/02/25 03:51:01;;;;;;;32.72;13.00;;;;;;;6.60;73.76;93179.00;5103732;28;20090;-85
2023/02/25 03:53:28;;;;;;;33.92;14.02;;;;;;;6.56;73.83;93156.88;5103656;28;20065;-85
2023/02/25 03:55:56;;;;;;;28.30;13.93;;;;;;;6.56;73.96;93167.47;5104658;28;20054;-85
2023/02/25 03:58:23;;;;;;;36.10;14.43;;;;;;;6.53;73.95;93146.09;5104767;28;20020;-85
2023/02/25 04:00:54;;;;;;;31.95;13.45;;;;;;;6.49;73.69;93164.44;5104499;28;20311;-85
2023/02/25 04:03:20;;;;;;;29.13;13.37;;;;;;;6.37;74.64;93166.88;5104501;28;20020;-85
2023/02/25 04:05:47;;;;;;;30.63;13.45;;;;;;;6.35;75.04;93151.31;5104567;28;20016;-84
2023/02/25 04:08:18;;;;;;;29.77;13.88;;;;;;;6.37;74.71;93161.59;5104359;28;20016;-84
2023/02/25 04:10:44;;;;;;;37.85;13.63;;;;;;;6.35;74.86;93164.56;5104412;28;20097;-84
2023/02/25 04:13:10;;;;;;;33.75;13.63;;;;;;;6.41;74.56;93165.19;5104418;28;20012;-83
2023/02/25 04:15:36;;;;;;;28.08;13.18;;;;;;;6.44;74.36;93175.19;5104418;28;20020;-84
2023/02/25 04:18:02;;;;;;;28.83;13.10;;;;;;;6.45;74.08;93176.72;5103076;28;20085;-84
2023/02/25 04:20:32;;;;;;;27.70;12.80;;;;;;;6.39;74.03;93162.06;5102232;28;20032;-84
2023/02/25 04:22:58;;;;;;;26.70;12.43;;;;;;;6.34;73.27;93180.72;5103911;28;20016;-84
2023/02/25 04:25:23;;;;;;;34.30;14.25;;;;;;;6.16;74.39;93174.53;5104268;28;20016;-85
2023/02/25 04:27:49;;;;;;;27.75;13.77;;;;;;;5.95;75.88;93168.97;5104149;28;20024;-85
2023/02/25 04:30:15;;;;;;;28.48;13.25;;;;;;;5.92;76.21;93164.22;5104055;28;20341;-85
2023/02/25 04:32:40;;;;;;;34.53;14.18;;;;;;;5.93;76.47;93160.53;5103927;28;20158;-85
2023/02/25 04:35:10;;;;;;;31.60;14.02;;;;;;;5.90;76.68;93150.53;5104174;28;20218;-85
2023/02/25 04:37:39;;;;;;;39.72;13.80;;;;;;;5.90;76.63;93147.88;5104142;28;20028;-86
2023/02/25 04:40:12;;;;;;;27.88;13.23;;;;;;;5.94;76.39;93146.19;5102901;28;20085;-85
2023/02/25 04:42:38;;;;;;;38.50;14.77;;;;;;;5.98;76.07;93128.66;5103796;28;20027;-85
2023/02/25 04:45:06;;;;;;;31.27;13.57;;;;;;;6.03;75.63;93133.84;5103847;28;20024;-84
2023/02/25 04:47:31;;;;;;;33.97;14.15;;;;;;;6.07;74.81;93142.75;5103431;28;20118;-84
2023/02/25 04:49:57;;;;;;;26.30;13.60;;;;;;;6.03;74.89;93147.09;5103535;28;20044;-85
2023/02/25 04:52:23;;;;;;;29.63;12.98;;;;;;;5.97;75.14;93113.91;5103591;28;20027;-84
2023/02/25 04:54:48;;;;;;;25.05;12.13;;;;;;;6.01;75.16;93130.72;5102510;28;20043;-84
2023/02/25 04:57:14;;;;;;;40.65;14.90;;;;;;;6.00;74.94;93134.44;5103592;28;20028;-84
2023/02/25 04:59:40;;;;;;;31.13;12.20;;;;;;;5.95;74.82;93121.34;5102334;28;20203;-84
2023/02/25 05:02:06;;;;;;;30.42;13.95;;;;;;;5.95;74.97;93118.72;5103480;28;20034;-84
2023/02/25 05:04:33;;;;;;;32.20;14.10;;;;;;;5.93;75.56;93097.03;5101990;28;20095;-85
2023/02/25 05:07:02;;;;;;;31.60;13.82;;;;;;;5.98;75.08;93107.50;5103507;28;20024;-86
2023/02/25 05:09:28;;;;;;;35.15;12.75;;;;;;;5.97;74.67;93104.09;5103591;28;20226;-85
2023/02/25 05:11:53;;;;;;;33.22;12.25;;;;;;;5.94;74.57;93093.28;5103201;28;20012;-85
2023/02/25 05:14:18;;;;;;;26.50;12.90;;;;;;;5.96;74.62;93096.44;5103357;28;20244;-86
2023/02/25 05:16:44;;;;;;;28.63;12.93;;;;;;;5.89;74.61;93088.91;5103375;28;20227;-85
2023/02/25 05:19:21;;;;;;;32.42;13.88;;;;;;;5.93;74.67;93092.53;5101940;28;20318;-85
2023/02/25 05:21:48;;;;;;;40.05;12.02;;;;;;;5.91;74.60;93104.50;5103103;28;20024;-85
2023/02/25 05:24:13;;;;;;;27.73;12.95;;;;;;;5.92;74.72;93090.16;5103161;28;20027;-84
2023/02/25 05:26:39;;;;;;;29.52;13.25;;;;;;;5.97;74.62;93108.59;5103263;28;20016;-84
2023/02/25 05:29:05;;;;;;;29.45;12.02;;;;;;;6.00;74.33;93113.28;5103254;28;20314;-85
2023/02/25 05:31:30;;;;;;;35.88;12.90;;;;;;;5.94;74.24;93132.97;5102579;28;20024;-85
2023/02/25 05:33:56;;;;;;;32.20;10.93;;;;;;;5.97;74.32;93111.25;5101843;28;20095;-86
2023/02/25 05:36:21;;;;;;;28.63;12.43;;;;;;;5.97;74.58;93146.41;5103038;28;20023;-84
2023/02/25 05:38:47;;;;;;;22.52;10.93;;;;;;;5.88;74.62;93145.53;5102908;28;20020;-87
2023/02/25 05:41:13;;;;;;;30.40;12.20;;;;;;;5.93;75.07;93149.94;5102825;28;20020;-86
2023/02/25 05:43:40;;;;;;;32.70;11.73;;;;;;;5.96;74.95;93175.81;5103022;28;20022;-86
2023/02/25 05:46:10;;;;;;;30.92;11.98;;;;;;;5.97;75.11;93148.28;5101671;28;20032;-87
2023/02/25 05:48:36;;;;;;;33.45;12.63;;;;;;;6.01;75.36;93157.19;5103123;28;20026;-86
2023/02/25 05:51:07;;;;;;;29.52;12.93;;;;;;;6.11;75.28;93156.16;5101642;28;20134;-87
2023/02/25 05:53:32;;;;;;;22.98;11.55;;;;;;;6.22;74.97;93147.66;5102867;28;20054;-87
2023/02/25 05:55:58;;;;;;;29.27;12.30;;;;;;;6.31;74.80;93163.59;5102870;28;20027;-86
2023/02/25 05:58:24;;;;;;;33.83;13.02;;;;;;;6.38;74.57;93165.81;5102568;28;20020;-86
2023/02/25 06:00:49;;;;;;;29.60;14.40;;;;;;;6.48;74.51;93159.47;5102497;28;20020;-86
2023/02/25 06:03:15;;;;;;;36.38;13.73;;;;;;;6.59;74.34;93171.34;5101564;28;20016;-86
2023/02/25 06:05:41;;;;;;;36.75;13.55;;;;;;;6.71;73.95;93181.38;5102701;28;20016;-86
2023/02/25 06:08:08;;;;;;;31.35;13.75;;;;;;;6.85;73.67;93176.00;5101354;28;20023;-86
2023/02/25 06:10:37;;;;;;;27.65;14.10;;;;;;;6.92;73.58;93176.31;5102726;28;20015;-85
2023/02/25 06:13:10;;;;;;;33.13;14.63;;;;;;;7.01;73.19;93163.91;5101367;28;20020;-85
2023/02/25 06:15:41;;;;;;;43.05;17.42;;;;;;;7.11;73.00;93154.91;5102625;28;20023;-85
2023/02/25 06:18:07;;;;;;;58.28;20.52;;;;;;;7.14;72.39;93162.22;5102804;28;20020;-85
2023/02/25 06:20:34;;;;;;;52.90;19.00;;;;;;;7.22;72.47;93150.84;5102443;28;20020;-85
2023/02/25 06:23:00;;;;;;;39.97;18.92;;;;;;;7.28;72.30;93156.78;5102445;28;20027;-84
2023/02/25 06:25:30;;;;;;;45.05;18.40;;;;;;;7.31;72.20;93133.09;5102359;28;20024;-86
2023/02/25 06:28:00;;;;;;;40.67;15.20;;;;;;;7.34;71.80;93147.59;5102390;28;20213;-85
2023/02/25 06:30:26;;;;;;;31.55;14.00;;;;;;;7.31;71.75;93149.00;5102410;28;20024;-85
2023/02/25 06:32:51;;;;;;;41.15;14.68;;;;;;;7.43;71.73;93159.00;5102495;28;20016;-85
2023/02/25 06:35:19;;;;;;;37.30;14.77;;;;;;;7.54;71.56;93167.44;5102384;28;20375;-87
2023/02/25 06:37:45;;;;;;;43.90;17.55;;;;;;;7.63;71.17;93154.97;5102308;28;20028;-86
2023/02/25 06:40:14;;;;;;;35.80;17.05;;;;;;;7.68;70.76;93164.66;5102025;28;20088;-85
2023/02/25 06:42:39;;;;;;;36.35;15.75;;;;;;;7.78;70.45;93161.69;5103424;28;20035;-84
2023/02/25 06:45:05;;;;;;;36.33;15.80;;;;;;;7.90;70.03;93171.69;5106019;28;20020;-85
2023/02/25 06:47:31;;;;;;;39.63;14.88;;;;;;;7.94;70.06;93169.97;5105669;28;20066;-86
2023/02/25 06:49:56;;;;;;;37.83;14.90;;;;;;;8.05;69.83;93165.88;5105901;28;20024;-85
2023/02/25 06:52:23;;;;;;;34.53;14.32;;;;;;;8.13;69.65;93161.69;5105412;28;20019;-85
2023/02/25 06:54:49;;;;;;;35.10;14.98;;;;;;;8.18;69.02;93164.94;5105821;28;20019;-85
2023/02/25 06:57:15;;;;;;;50.00;15.75;;;;;;;8.21;69.24;93153.69;5104687;28;20031;-86
2023/02/25 06:59:40;;;;;;;25.20;13.82;;;;;;;8.33;68.93;93149.63;5105893;28;20278;-85
2023/02/25 07:02:07;;;;;;;29.60;14.18;;;;;;;8.41;68.61;93132.91;5106188;28;20031;-84
2023/02/25 07:04:32;;;;;;;34.17;14.68;;;;;;;8.45;68.39;93125.88;5106228;28;20028;-83
2023/02/25 07:06:58;;;;;;;34.38;13.70;;;;;;;8.50;68.34;93127.56;5106148;28;20028;-86
2023/02/25 07:09:23;;;;;;;31.02;13.30;;;;;;;8.55;68.21;93109.59;5105997;28;20074;-84
2023/02/25 07:11:49;;;;;;;28.70;12.60;;;;;;;8.62;67.66;93112.53;5105693;28;20020;-84
2023/02/25 07:14:15;;;;;;;28.38;12.85;;;;;;;8.70;67.60;93110.16;5105609;28;20024;-84
2023/02/25 07:16:41;;;;;;;28.55;13.00;;;;;;;8.78;67.56;93094.19;5104484;28;20089;-84
2023/02/25 07:19:06;;;;;;;39.95;13.32;;;;;;;8.88;67.18;93093.03;5105733;28;20326;-83
2023/02/25 07:21:32;;;;;;;37.90;12.70;;;;;;;8.95;66.34;93093.31;5105423;28;20024;-83
2023/02/25 07:23:58;;;;;;;36.47;12.65;;;;;;;9.05;66.15;93097.47;5105304;28;20099;-84
2023/02/25 07:26:27;;;;;;;40.60;12.40;;;;;;;9.12;66.02;93094.31;5105568;28;20195;-84
2023/02/25 07:28:56;;;;;;;30.30;12.52;;;;;;;9.20;65.88;93083.63;5105598;28;20099;-84
2023/02/25 07:31:22;;;;;;;30.13;11.77;;;;;;;9.34;65.67;93085.25;5105584;28;20222;-84
2023/02/25 07:33:47;;;;;;;31.58;11.52;;;;;;;9.47;65.45;93075.50;5105561;28;20095;-84
2023/02/25 07:36:14;;;;;;;34.63;12.07;;;;;;;9.57;64.89;93077.75;5105450;28;20019;-83
2023/02/25 07:38:40;;;;;;;32.97;12.10;;;;;;;9.65;64.19;93079.56;5105225;28;20016;-83
2023/02/25 07:41:07;;;;;;;27.35;11.27;;;;;;;9.74;63.75;93068.84;5105220;28;20095;-83
2023/02/25 07:43:33;;;;;;;42.35;10.80;;;;;;;9.80;63.84;93065.66;5105488;28;20040;-84
2023/02/25 07:45:58;;;;;;;25.42;11.32;;;;;;;9.87;63.57;93051.81;5105036;28;20107;-85
2023/02/25 07:48:24;;;;;;;26.92;12.32;;;;;;;9.95;63.39;93050.16;5105232;28;20207;-84
2023/02/25 07:50:50;;;;;;;35.67;11.07;;;;;;;10.09;62.41;93061.31;5104038;28;20214;-85
2023/02/25 07:53:16;;;;;;;36.00;12.05;;;;;;;10.18;61.73;93054.00;5104312;28;20306;-84
2023/02/25 07:55:43;;;;;;;35.13;11.90;;;;;;;10.24;61.32;93023.41;5104256;28;20114;-83
2023/02/25 07:58:09;;;;;;;33.72;11.70;;;;;;;10.32;61.37;93026.31;5105083;28;20099;-84
2023/02/25 08:00:37;;;;;;;40.08;11.57;;;;;;;10.45;60.64;93017.22;5104873;28;20028;-84
2023/02/25 08:03:03;;;;;;;37.67;11.10;;;;;;;10.50;60.06;93017.03;5104670;28;20032;-84
2023/02/25 08:05:32;;;;;;;38.65;11.75;;;;;;;10.59;60.09;92998.25;5104612;28;20024;-84
2023/02/25 08:07:57;;;;;;;31.88;11.50;;;;;;;10.69;59.49;93029.03;5104731;28;20237;-84
2023/02/25 08:10:23;;;;;;;41.13;12.25;;;;;;;10.71;59.38;93021.47;5104529;28;20027;-84
2023/02/25 08:12:48;;;;;;;28.00;12.02;;;;;;;10.78;59.37;93011.00;5104619;28;20039;-84
2023/02/25 08:15:14;;;;;;;29.23;11.45;;;;;;;10.91;58.97;93017.91;5103402;28;20026;-89
2023/02/25 08:17:39;;;;;;;39.55;11.57;;;;;;;11.04;57.77;93011.41;5103256;28;20030;-88
2023/02/25 08:20:05;;;;;;;43.08;11.00;;;;;;;11.19;57.50;93025.19;5104241;28;20090;-87
2023/02/25 08:22:31;;;;;;;41.92;12.93;;;;;;;11.28;57.66;92998.38;5103158;28;20024;-87
2023/02/25 08:24:56;;;;;;;31.65;11.25;;;;;;;11.36;56.81;93003.59;5104243;28;20027;-87
2023/02/25 08:27:22;;;;;;;37.88;11.73;;;;;;;11.41;56.08;93027.34;5104052;28;20020;-88
2023/02/25 08:29:48;;;;;;;40.60;11.82;;;;;;;11.47;55.96;93001.19;5102850;28;20072;-86
2023/02/25 08:32:13;;;;;;;35.40;12.07;;;;;;;11.59;55.60;93019.06;5103945;28;20016;-83
2023/02/25 08:34:38;;;;;;;31.42;12.50;;;;;;;11.55;55.11;92999.50;5103991;28;20035;-84
2023/02/25 08:37:04;;;;;;;43.38;12.15;;;;;;;11.54;55.43;92997.94;5104098;28;20230;-84
2023/02/25 08:39:30;;;;;;;33.88;10.85;;;;;;;11.57;55.48;92994.63;5102690;28;20024;-84
2023/02/25 08:41:55;;;;;;;29.08;10.23;;;;;;;11.63;54.42;92993.25;5103736;28;20322;-85
2023/02/25 08:44:21;;;;;;;45.83;11.45;;;;;;;11.68;54.54;92997.56;5103945;28;20222;-84
2023/02/25 08:46:46;;;;;;;42.25;10.43;;;;;;;11.74;54.51;92996.97;5103593;28;20039;-84
2023/02/25 08:49:12;;;;;;;36.53;10.52;;;;;;;11.80;54.15;92990.28;5103677;28;20125;-84
2023/02/25 08:51:39;;;;;;;36.03;13.95;;;;;;;11.92;53.89;92964.66;5102365;28;20110;-82
2023/02/25 08:54:09;;;;;;;33.20;11.18;;;;;;;11.95;52.60;92959.41;5103828;28;20218;-82
2023/02/25 08:56:36;;;;;;;27.23;10.05;;;;;;;12.04;52.25;92975.28;5103796;28;20020;-82
2023/02/25 08:59:02;;;;;;;31.45;12.65;;;;;;;12.08;52.48;92949.44;5103481;28;20229;-84
2023/02/25 09:01:43;;;;;;;34.47;12.40;;;;;;;12.09;52.42;92967.03;5102424;28;20024;-83
2023/02/25 09:04:20;;;;;;;27.90;10.00;;;;;;;12.00;51.73;92966.41;5103403;28;20333;-83
2023/02/25 09:06:46;;;;;;;27.73;9.23;;;;;;;12.06;50.78;92970.38;5101868;28;20027;-83
2023/02/25 09:09:12;;;;;;;38.15;10.18;;;;;;;12.13;51.33;92962.53;5103342;28;20039;-83
2023/02/25 09:11:39;;;;;;;37.88;11.27;;;;;;;12.18;50.94;92956.94;5103328;28;20058;-82
2023/02/25 09:14:04;;;;;;;30.70;8.98;;;;;;;12.05;51.11;92966.16;5103593;28;20022;-83
2023/02/25 09:16:30;;;;;;;30.60;9.05;;;;;;;12.01;48.18;92947.38;5102198;28;20047;-83
2023/02/25 09:18:56;;;;;;;32.70;9.85;;;;;;;11.88;50.31;92945.84;5103138;28;20035;-82
2023/02/25 09:21:22;;;;;;;24.67;8.90;;;;;;;11.82;49.89;92928.53;5101774;28;20030;-83
2023/02/25 09:23:50;;;;;;;37.40;8.13;;;;;;;11.81;47.16;92937.66;5103180;28;20027;-83
2023/02/25 09:26:16;;;;;;;27.95;8.32;;;;;;;11.81;45.47;92937.66;5101431;28;20020;-82
2023/02/25 09:28:41;;;;;;;22.48;7.82;;;;;;;11.81;45.36;92895.72;5101378;28;20119;-82
2023/02/25 09:31:07;;;;;;;35.03;11.32;;;;;;;11.54;50.39;92929.34;5101796;28;20027;-82
2023/02/25 09:33:36;;;;;;;26.05;8.85;;;;;;;11.26;47.08;92924.03;5101578;28;20020;-81
2023/02/25 09:36:12;;;;;;;28.80;5.63;;;;;;;11.41;44.26;92882.50;5101690;28;20068;-81
2023/02/25 09:38:39;;;;;;;20.85;6.53;;;;;;;11.42;42.66;92898.16;5101388;28;20199;-83
2023/02/25 09:41:20;;;;;;;37.10;10.70;;;;;;;11.36;49.41;92922.78;5102552;28;20024;-82
2023/02/25 09:43:47;;;;;;;27.67;6.15;;;;;;;11.26;44.82;92929.38;5101706;28;20093;-81
2023/02/25 09:46:17;;;;;;;33.38;9.02;;;;;;;11.40;46.66;92920.97;5102624;28;20044;-81
2023/02/25 09:49:10;;;;;;;26.73;7.97;;;;;;;11.37;48.97;92949.09;5102915;28;20094;-81
2023/02/25 09:51:38;;;;;;;;;;;;;;;11.05;53.53;92902.88;5103348;28;20034;-82
2023/02/25 09:54:06;;;;;;;23.80;11.38;;;;;;;10.74;55.53;92924.84;5102788;28;20047;-82
2023/02/25 09:56:32;;;;;;;32.47;12.00;;;;;;;10.56;55.74;92898.47;5102905;28;20073;-82
2023/02/25 09:58:58;;;;;;;35.50;10.52;;;;;;;10.35;55.50;92903.13;5102916;28;20040;-81
2023/02/25 10:01:35;;;;;;;34.78;10.77;;;;;;;10.44;55.20;92885.13;5102583;28;20034;-81
2023/02/25 10:04:26;;;;;;;19.88;6.70;;;;;;;10.90;44.99;92866.28;5102727;28;20027;-81
2023/02/25 10:06:54;;;;;;;14.98;4.32;;;;;;;11.53;41.61;92876.31;5102595;28;20016;-81
2023/02/25 10:09:32;;;;;;;35.45;8.70;;;;;;;11.78;46.22;92871.59;5102801;28;20020;-81
2023/02/25 10:12:12;;;;;;;30.98;10.48;;;;;;;11.58;50.38;92903.53;5102610;28;20039;-82
2023/02/25 10:14:59;;;;;;;42.90;13.45;;;;;;;11.51;51.49;92884.66;5102767;28;20020;-81
2023/02/25 10:17:28;;;;;;;28.95;4.75;;;;;;;11.52;42.17;92846.19;5103478;28;20024;-81
2023/02/25 10:20:25;;;;;;;27.27;4.88;;;;;;;12.08;39.63;92839.91;5105440;28;20035;-81
2023/02/25 10:23:01;;;;;;;20.25;5.30;;;;;;;12.37;40.28;92841.31;5106299;28;20244;-81
2023/02/25 10:25:31;;;;;;;27.75;7.35;;;;;;;12.51;41.95;92813.38;5106371;28;20035;-82
2023/02/25 10:28:00;;;;;;;27.05;5.30;;;;;;;12.57;39.74;92836.03;5106507;28;20028;-81
2023/02/25 10:30:31;;;;;;;26.90;4.95;;;;;;;12.90;37.40;92832.09;5106353;28;20036;-81
2023/02/25 10:33:02;;;;;;;31.17;5.07;;;;;;;13.04;37.23;92803.72;5106211;28;20024;-81
2023/02/25 10:35:36;;;;;;;17.83;4.00;;;;;;;13.25;36.59;92802.59;5106308;28;20036;-81
2023/02/25 10:38:02;;;;;;;23.58;4.38;;;;;;;13.41;35.83;92784.56;5106205;28;20051;-81
2023/02/25 10:40:28;;;;;;;19.42;5.00;;;;;;;13.43;35.58;92811.75;5106142;28;20023;-80
2023/02/25 10:42:58;;;;;;;18.33;3.60;;;;;;;13.50;35.55;92796.94;5105903;28;20023;-80
2023/02/25 10:45:27;;;;;;;20.33;4.43;;;;;;;13.54;35.49;92787.06;5106118;28;20024;-81
2023/02/25 10:48:23;;;;;;;20.55;5.40;;;;;;;13.66;35.34;92781.50;5105875;28;20111;-81
2023/02/25 10:51:11;;;;;;;19.63;4.72;;;;;;;13.61;35.17;92789.84;5104933;28;20032;-79
2023/02/25 10:53:56;;;;;;;24.55;4.28;;;;;;;13.68;35.54;92757.84;5106116;28;20027;-81
2023/02/25 10:56:43;;;;;;;14.40;3.03;;;;;;;13.62;35.28;92745.88;5105691;28;20024;-81
2023/02/25 10:59:28;;;;;;;22.83;5.07;;;;;;;13.62;35.48;92735.94;5105776;28;20378;-81
2023/02/25 11:01:57;;;;;;;23.13;5.35;;;;;;;13.64;35.50;92706.91;5105666;28;20032;-81
2023/02/25 11:04:28;;;;;;;34.97;5.30;;;;;;;13.72;35.03;92721.16;5104413;28;20269;-81
2023/02/25 11:06:53;;;;;;;21.27;5.93;;;;;;;13.77;35.22;92736.91;5105796;28;20092;-81
2023/02/25 11:09:19;;;;;;;25.33;5.10;;;;;;;13.73;35.45;92728.06;5105589;28;20095;-81
2023/02/25 11:12:17;;;;;;;20.20;4.18;;;;;;;13.72;35.78;92718.50;5105494;28;20217;-81
2023/02/25 11:14:43;;;;;;;18.58;4.40;;;;;;;13.81;35.31;92748.44;5104411;28;20199;-80
2023/02/25 11:17:10;;;;;;;13.85;3.55;;;;;;;13.85;35.14;92743.94;5105358;28;20054;-80
2023/02/25 11:19:39;;;;;;;20.85;4.13;;;;;;;13.83;35.26;92729.34;5105442;28;20036;-81
2023/02/25 11:22:21;;;;;;;22.15;4.60;;;;;;;13.82;35.77;92711.75;5105662;28;20298;-80
2023/02/25 11:24:59;;;;;;;22.63;5.18;;;;;;;13.82;35.64;92675.03;5105209;28;20032;-82
2023/02/25 11:27:35;;;;;;;17.88;4.53;;;;;;;13.82;35.75;92709.06;5105188;28;20024;-81
2023/02/25 11:30:26;;;;;;;24.00;4.82;;;;;;;13.85;35.30;92663.56;5104898;28;20058;-81
2023/02/25 11:32:55;;;;;;;19.55;5.15;;;;;;;13.87;35.69;92681.19;5104537;28;20039;-81
2023/02/25 11:35:36;;;;;;;29.95;5.40;;;;;;;13.86;36.18;92691.16;5103865;28;20031;-81